sensor_id;sensor_type;location;lat;lon;timestamp;temperature;humidity
80579;SHT31;69939;52.402;6.608;2024-02-14T00:01:19;7.04;99.99
80579;SHT31;69939;52.402;6.608;2024-02-14T00:03:49;7.06;99.99
80579;SHT31;69939;52.402;6.608;2024-02-14T00:06:18;7.06;99.99
80579;SHT31;69939;52.402;6.608;2024-02-14T00:08:50;7.04;99.99
80579;SHT31;69939;52.402;6.608;2024-02-14T00:11:24;7.08;99.99
80579;SHT31;69939;52.402;6.608;2024-02-14T00:14:00;7.14;99.99
80579;SHT31;69939;52.402;6.608;2024-02-14T00:16:29;7.16;99.99
80579;SHT31;69939;52.402;6.608;2024-02-14T00:18:58;7.13;99.99
80579;SHT31;69939;52.402;6.608;2024-02-14T00:21:28;7.18;99.99
80579;SHT31;69939;52.402;6.608;2024-02-14T00:24:00;7.21;99.99
80579;SHT31;69939;52.402;6.608;2024-02-14T00:26:39;7.20;99.99
80579;SHT31;69939;52.402;6.608;2024-02-14T00:29:09;7.26;99.99
80579;SHT31;69939;52.402;6.608;2024-02-14T00:31:38;7.31;99.99
80579;SHT31;69939;52.402;6.608;2024-02-14T00:34:10;7.32;99.99
80579;SHT31;69939;52.402;6.608;2024-02-14T00:36:40;7.32;99.99
80579;SHT31;69939;52.402;6.608;2024-02-14T00:39:09;7.35;99.99
80579;SHT31;69939;52.402;6.608;2024-02-14T00:41:41;7.37;99.99
80579;SHT31;69939;52.402;6.608;2024-02-14T00:44:11;7.37;99.99
80579;SHT31;69939;52.402;6.608;2024-02-14T00:46:42;7.40;99.99
80579;SHT31;69939;52.402;6.608;2024-02-14T00:49:12;7.38;99.99
80579;SHT31;69939;52.402;6.608;2024-02-14T00:51:41;7.41;99.99
80579;SHT31;69939;52.402;6.608;2024-02-14T00:54:21;7.45;99.99
80579;SHT31;69939;52.402;6.608;2024-02-14T00:56:50;7.44;99.99
80579;SHT31;69939;52.402;6.608;2024-02-14T00:59:21;7.41;99.99
80579;SHT31;69939;52.402;6.608;2024-02-14T01:01:50;7.45;99.99
80579;SHT31;69939;52.402;6.608;2024-02-14T01:04:20;7.44;99.99
80579;SHT31;69939;52.402;6.608;2024-02-14T01:06:49;7.44;99.99
80579;SHT31;69939;52.402;6.608;2024-02-14T01:09:24;7.50;99.99
80579;SHT31;69939;52.402;6.608;2024-02-14T01:11:53;7.50;99.99
80579;SHT31;69939;52.402;6.608;2024-02-14T01:14:22;7.47;99.99
80579;SHT31;69939;52.402;6.608;2024-02-14T01:16:52;7.48;99.99
80579;SHT31;69939;52.402;6.608;2024-02-14T01:19:22;7.51;99.99
80579;SHT31;69939;52.402;6.608;2024-02-14T01:21:54;7.54;99.99
80579;SHT31;69939;52.402;6.608;2024-02-14T01:24:26;7.56;99.99
80579;SHT31;69939;52.402;6.608;2024-02-14T01:26:56;7.54;99.99
80579;SHT31;69939;52.402;6.608;2024-02-14T01:29:25;7.58;99.99
80579;SHT31;69939;52.402;6.608;2024-02-14T01:31:54;7.58;99.99
80579;SHT31;69939;52.402;6.608;2024-02-14T01:34:24;7.61;99.99
80579;SHT31;69939;52.402;6.608;2024-02-14T01:36:53;7.61;99.99
80579;SHT31;69939;52.402;6.608;2024-02-14T01:39:23;7.62;99.99
80579;SHT31;69939;52.402;6.608;2024-02-14T01:41:55;7.62;99.99
80579;SHT31;69939;52.402;6.608;2024-02-14T01:44:24;7.62;99.99
80579;SHT31;69939;52.402;6.608;2024-02-14T01:46:53;7.69;99.99
80579;SHT31;69939;52.402;6.608;2024-02-14T01:49:29;7.71;99.99
80579;SHT31;69939;52.402;6.608;2024-02-14T01:52:02;7.71;99.99
80579;SHT31;69939;52.402;6.608;2024-02-14T01:54:33;7.71;99.99
80579;SHT31;69939;52.402;6.608;2024-02-14T01:57:05;7.74;99.99
80579;SHT31;69939;52.402;6.608;2024-02-14T01:59:37;7.74;99.99
80579;SHT31;69939;52.402;6.608;2024-02-14T02:02:07;7.81;99.99
80579;SHT31;69939;52.402;6.608;2024-02-14T02:04:41;7.81;99.99
80579;SHT31;69939;52.402;6.608;2024-02-14T02:07:12;7.82;99.99
80579;SHT31;69939;52.402;6.608;2024-02-14T02:09:45;7.86;99.99
80579;SHT31;69939;52.402;6.608;2024-02-14T02:12:15;7.86;99.99
80579;SHT31;69939;52.402;6.608;2024-02-14T02:14:47;7.89;99.99
80579;SHT31;69939;52.402;6.608;2024-02-14T02:17:18;7.93;99.99
80579;SHT31;69939;52.402;6.608;2024-02-14T02:19:53;7.93;99.99
80579;SHT31;69939;52.402;6.608;2024-02-14T02:22:27;7.96;99.99
80579;SHT31;69939;52.402;6.608;2024-02-14T02:25:07;7.97;99.99
80579;SHT31;69939;52.402;6.608;2024-02-14T02:27:43;8.02;99.99
80579;SHT31;69939;52.402;6.608;2024-02-14T02:30:26;8.04;99.99
80579;SHT31;69939;52.402;6.608;2024-02-14T02:33:00;8.07;99.99
80579;SHT31;69939;52.402;6.608;2024-02-14T02:35:41;8.06;99.99
80579;SHT31;69939;52.402;6.608;2024-02-14T02:38:11;8.12;99.99
80579;SHT31;69939;52.402;6.608;2024-02-14T02:40:48;8.13;99.99
80579;SHT31;69939;52.402;6.608;2024-02-14T02:43:39;8.20;99.99
80579;SHT31;69939;52.402;6.608;2024-02-14T02:49:13;8.20;99.99
80579;SHT31;69939;52.402;6.608;2024-02-14T02:51:54;8.23;99.99
80579;SHT31;69939;52.402;6.608;2024-02-14T02:54:29;8.20;99.99
80579;SHT31;69939;52.402;6.608;2024-02-14T02:57:03;8.27;99.99
80579;SHT31;69939;52.402;6.608;2024-02-14T02:59:34;8.27;99.99
80579;SHT31;69939;52.402;6.608;2024-02-14T03:02:07;8.30;99.99
80579;SHT31;69939;52.402;6.608;2024-02-14T03:04:37;8.34;99.99
80579;SHT31;69939;52.402;6.608;2024-02-14T03:07:10;8.31;99.99
80579;SHT31;69939;52.402;6.608;2024-02-14T03:09:40;8.31;99.99
80579;SHT31;69939;52.402;6.608;2024-02-14T03:12:09;8.36;99.99
80579;SHT31;69939;52.402;6.608;2024-02-14T03:14:41;8.37;99.99
80579;SHT31;69939;52.402;6.608;2024-02-14T03:17:11;8.40;99.99
80579;SHT31;69939;52.402;6.608;2024-02-14T03:19:40;8.38;99.99
80579;SHT31;69939;52.402;6.608;2024-02-14T03:22:15;8.48;99.99
80579;SHT31;69939;52.402;6.608;2024-02-14T03:24:45;8.47;99.99
80579;SHT31;69939;52.402;6.608;2024-02-14T03:27:15;8.47;99.99
80579;SHT31;69939;52.402;6.608;2024-02-14T03:29:49;8.51;99.99
80579;SHT31;69939;52.402;6.608;2024-02-14T03:32:20;8.55;99.99
80579;SHT31;69939;52.402;6.608;2024-02-14T03:34:51;8.57;99.99
80579;SHT31;69939;52.402;6.608;2024-02-14T03:37:24;8.55;99.99
80579;SHT31;69939;52.402;6.608;2024-02-14T03:39:53;8.58;99.99
80579;SHT31;69939;52.402;6.608;2024-02-14T03:42:28;8.60;99.99
80579;SHT31;69939;52.402;6.608;2024-02-14T03:44:58;8.64;99.99
80579;SHT31;69939;52.402;6.608;2024-02-14T03:47:31;8.61;99.99
80579;SHT31;69939;52.402;6.608;2024-02-14T03:50:01;8.65;99.99
80579;SHT31;69939;52.402;6.608;2024-02-14T03:52:31;8.67;99.99
80579;SHT31;69939;52.402;6.608;2024-02-14T03:55:01;8.62;99.99
80579;SHT31;69939;52.402;6.608;2024-02-14T03:57:35;8.68;99.99
80579;SHT31;69939;52.402;6.608;2024-02-14T04:00:05;8.69;99.99
80579;SHT31;69939;52.402;6.608;2024-02-14T04:02:42;8.72;99.99
80579;SHT31;69939;52.402;6.608;2024-02-14T04:05:12;8.72;99.99
80579;SHT31;69939;52.402;6.608;2024-02-14T04:07:41;8.72;99.99
80579;SHT31;69939;52.402;6.608;2024-02-14T04:10:14;8.72;99.99
80579;SHT31;69939;52.402;6.608;2024-02-14T04:12:44;8.75;99.99
80579;SHT31;69939;52.402;6.608;2024-02-14T04:15:13;8.73;99.99
80579;SHT31;69939;52.402;6.608;2024-02-14T04:17:49;8.72;99.99
80579;SHT31;69939;52.402;6.608;2024-02-14T04:20:18;8.81;99.99
80579;SHT31;69939;52.402;6.608;2024-02-14T04:22:48;8.82;99.99
80579;SHT31;69939;52.402;6.608;2024-02-14T04:25:18;8.86;99.99
80579;SHT31;69939;52.402;6.608;2024-02-14T04:27:47;8.83;99.99
80579;SHT31;69939;52.402;6.608;2024-02-14T04:30:16;8.83;99.99
80579;SHT31;69939;52.402;6.608;2024-02-14T04:32:48;8.86;99.99
80579;SHT31;69939;52.402;6.608;2024-02-14T04:35:20;8.86;99.99
80579;SHT31;69939;52.402;6.608;2024-02-14T04:37:49;8.89;99.99
80579;SHT31;69939;52.402;6.608;2024-02-14T04:40:18;8.89;99.99
80579;SHT31;69939;52.402;6.608;2024-02-14T04:42:48;8.92;99.99
80579;SHT31;69939;52.402;6.608;2024-02-14T04:45:18;8.92;99.99
80579;SHT31;69939;52.402;6.608;2024-02-14T04:47:50;8.93;99.99
80579;SHT31;69939;52.402;6.608;2024-02-14T04:50:19;8.96;99.99
80579;SHT31;69939;52.402;6.608;2024-02-14T04:52:48;8.99;99.99
80579;SHT31;69939;52.402;6.608;2024-02-14T04:55:18;8.99;99.99
80579;SHT31;69939;52.402;6.608;2024-02-14T04:57:47;9.00;99.99
80579;SHT31;69939;52.402;6.608;2024-02-14T05:00:17;9.03;99.99
80579;SHT31;69939;52.402;6.608;2024-02-14T05:02:47;9.08;99.99
80579;SHT31;69939;52.402;6.608;2024-02-14T05:05:19;9.09;99.99
80579;SHT31;69939;52.402;6.608;2024-02-14T05:07:49;9.08;99.99
80579;SHT31;69939;52.402;6.608;2024-02-14T05:10:19;9.12;99.99
80579;SHT31;69939;52.402;6.608;2024-02-14T05:12:48;9.16;99.99
80579;SHT31;69939;52.402;6.608;2024-02-14T05:15:17;9.15;99.99
80579;SHT31;69939;52.402;6.608;2024-02-14T05:17:47;9.18;99.99
80579;SHT31;69939;52.402;6.608;2024-02-14T05:20:19;9.18;99.99
80579;SHT31;69939;52.402;6.608;2024-02-14T05:22:48;9.23;99.99
80579;SHT31;69939;52.402;6.608;2024-02-14T05:25:18;9.22;99.99
80579;SHT31;69939;52.402;6.608;2024-02-14T05:27:48;9.26;99.99
80579;SHT31;69939;52.402;6.608;2024-02-14T05:30:17;9.29;99.99
80579;SHT31;69939;52.402;6.608;2024-02-14T05:32:50;9.31;99.99
80579;SHT31;69939;52.402;6.608;2024-02-14T05:35:20;9.34;99.99
80579;SHT31;69939;52.402;6.608;2024-02-14T05:37:50;9.34;99.99
80579;SHT31;69939;52.402;6.608;2024-02-14T05:40:20;9.37;99.99
80579;SHT31;69939;52.402;6.608;2024-02-14T05:42:49;9.41;99.99
80579;SHT31;69939;52.402;6.608;2024-02-14T05:45:19;9.43;99.99
80579;SHT31;69939;52.402;6.608;2024-02-14T05:47:52;9.44;99.99
80579;SHT31;69939;52.402;6.608;2024-02-14T05:50:21;9.44;99.99
80579;SHT31;69939;52.402;6.608;2024-02-14T05:52:50;9.46;99.99
80579;SHT31;69939;52.402;6.608;2024-02-14T05:55:20;9.48;99.99
80579;SHT31;69939;52.402;6.608;2024-02-14T05:57:49;9.48;99.99
80579;SHT31;69939;52.402;6.608;2024-02-14T06:00:25;9.52;99.99
80579;SHT31;69939;52.402;6.608;2024-02-14T06:02:55;9.48;99.99
80579;SHT31;69939;52.402;6.608;2024-02-14T06:05:24;9.51;99.99
80579;SHT31;69939;52.402;6.608;2024-02-14T06:07:53;9.52;99.99
80579;SHT31;69939;52.402;6.608;2024-02-14T06:10:23;9.57;99.99
80579;SHT31;69939;52.402;6.608;2024-02-14T06:12:52;9.57;99.99
80579;SHT31;69939;52.402;6.608;2024-02-14T06:15:24;9.59;99.99
80579;SHT31;69939;52.402;6.608;2024-02-14T06:17:54;9.61;99.99
80579;SHT31;69939;52.402;6.608;2024-02-14T06:20:23;9.61;99.99
80579;SHT31;69939;52.402;6.608;2024-02-14T06:22:52;9.61;99.99
80579;SHT31;69939;52.402;6.608;2024-02-14T06:25:22;9.61;99.99
80579;SHT31;69939;52.402;6.608;2024-02-14T06:27:51;9.62;99.99
80579;SHT31;69939;52.402;6.608;2024-02-14T06:30:20;9.70;99.99
80579;SHT31;69939;52.402;6.608;2024-02-14T06:32:56;9.67;99.99
80579;SHT31;69939;52.402;6.608;2024-02-14T06:35:26;9.68;99.99
80579;SHT31;69939;52.402;6.608;2024-02-14T06:37:58;9.68;99.99
80579;SHT31;69939;52.402;6.608;2024-02-14T06:40:27;9.71;99.99
80579;SHT31;69939;52.402;6.608;2024-02-14T06:42:57;9.71;99.99
80579;SHT31;69939;52.402;6.608;2024-02-14T06:45:32;9.73;99.99
80579;SHT31;69939;52.402;6.608;2024-02-14T06:48:03;9.74;99.99
80579;SHT31;69939;52.402;6.608;2024-02-14T06:50:35;9.74;99.99
80579;SHT31;69939;52.402;6.608;2024-02-14T06:53:04;9.78;99.99
80579;SHT31;69939;52.402;6.608;2024-02-14T06:55:33;9.78;99.99
80579;SHT31;69939;52.402;6.608;2024-02-14T06:58:03;9.77;99.99
80579;SHT31;69939;52.402;6.608;2024-02-14T07:00:41;9.78;99.99
80579;SHT31;69939;52.402;6.608;2024-02-14T07:03:11;9.81;99.99
80579;SHT31;69939;52.402;6.608;2024-02-14T07:05:40;9.78;99.99
80579;SHT31;69939;52.402;6.608;2024-02-14T07:08:09;9.78;99.99
80579;SHT31;69939;52.402;6.608;2024-02-14T07:10:39;9.79;99.99
80579;SHT31;69939;52.402;6.608;2024-02-14T07:13:08;9.79;99.99
80579;SHT31;69939;52.402;6.608;2024-02-14T07:15:37;9.79;99.99
80579;SHT31;69939;52.402;6.608;2024-02-14T07:18:12;9.81;99.99
80579;SHT31;69939;52.402;6.608;2024-02-14T07:20:42;9.81;99.99
80579;SHT31;69939;52.402;6.608;2024-02-14T07:23:11;9.85;99.99
80579;SHT31;69939;52.402;6.608;2024-02-14T07:25:40;9.82;99.99
80579;SHT31;69939;52.402;6.608;2024-02-14T07:28:10;9.84;99.99
80579;SHT31;69939;52.402;6.608;2024-02-14T07:30:40;9.85;99.99
80579;SHT31;69939;52.402;6.608;2024-02-14T07:33:09;9.85;99.99
80579;SHT31;69939;52.402;6.608;2024-02-14T07:35:41;9.84;99.99
80579;SHT31;69939;52.402;6.608;2024-02-14T07:38:19;9.84;99.99
80579;SHT31;69939;52.402;6.608;2024-02-14T07:40:48;9.85;99.99
80579;SHT31;69939;52.402;6.608;2024-02-14T07:43:18;9.86;99.99
80579;SHT31;69939;52.402;6.608;2024-02-14T07:45:47;9.88;99.99
80579;SHT31;69939;52.402;6.608;2024-02-14T07:48:16;9.86;99.99
80579;SHT31;69939;52.402;6.608;2024-02-14T07:50:46;9.85;99.99
80579;SHT31;69939;52.402;6.608;2024-02-14T07:53:15;9.85;99.99
80579;SHT31;69939;52.402;6.608;2024-02-14T07:55:48;9.84;99.99
80579;SHT31;69939;52.402;6.608;2024-02-14T07:58:18;9.86;99.99
80579;SHT31;69939;52.402;6.608;2024-02-14T08:00:47;9.84;99.99
80579;SHT31;69939;52.402;6.608;2024-02-14T08:03:16;9.85;99.99
80579;SHT31;69939;52.402;6.608;2024-02-14T08:05:46;9.82;99.99
80579;SHT31;69939;52.402;6.608;2024-02-14T08:08:19;9.82;99.99
80579;SHT31;69939;52.402;6.608;2024-02-14T08:10:51;9.81;99.99
80579;SHT31;69939;52.402;6.608;2024-02-14T08:13:20;9.84;99.99
80579;SHT31;69939;52.402;6.608;2024-02-14T08:15:53;9.85;99.99
80579;SHT31;69939;52.402;6.608;2024-02-14T08:18:23;9.85;99.99
80579;SHT31;69939;52.402;6.608;2024-02-14T08:20:53;9.82;99.99
80579;SHT31;69939;52.402;6.608;2024-02-14T08:23:25;9.82;99.99
80579;SHT31;69939;52.402;6.608;2024-02-14T08:25:56;9.85;99.99
80579;SHT31;69939;52.402;6.608;2024-02-14T08:28:26;9.85;99.99
80579;SHT31;69939;52.402;6.608;2024-02-14T08:30:55;9.85;99.99
80579;SHT31;69939;52.402;6.608;2024-02-14T08:33:24;9.88;99.99
80579;SHT31;69939;52.402;6.608;2024-02-14T08:35:53;9.88;99.99
80579;SHT31;69939;52.402;6.608;2024-02-14T08:38:25;9.91;99.99
80579;SHT31;69939;52.402;6.608;2024-02-14T08:40:55;9.95;99.99
80579;SHT31;69939;52.402;6.608;2024-02-14T08:43:24;9.92;99.99
80579;SHT31;69939;52.402;6.608;2024-02-14T08:45:54;9.94;99.99
80579;SHT31;69939;52.402;6.608;2024-02-14T08:48:23;9.95;99.99
80579;SHT31;69939;52.402;6.608;2024-02-14T08:50:54;9.94;99.99
80579;SHT31;69939;52.402;6.608;2024-02-14T08:53:27;9.96;99.99
80579;SHT31;69939;52.402;6.608;2024-02-14T08:55:56;9.96;99.99
80579;SHT31;69939;52.402;6.608;2024-02-14T08:58:26;9.99;99.99
80579;SHT31;69939;52.402;6.608;2024-02-14T09:00:55;10.02;99.99
80579;SHT31;69939;52.402;6.608;2024-02-14T09:03:24;10.03;99.99
80579;SHT31;69939;52.402;6.608;2024-02-14T09:05:54;10.06;99.99
80579;SHT31;69939;52.402;6.608;2024-02-14T09:08:23;10.10;99.99
80579;SHT31;69939;52.402;6.608;2024-02-14T09:10:56;10.17;99.99
80579;SHT31;69939;52.402;6.608;2024-02-14T09:13:26;10.17;99.99
80579;SHT31;69939;52.402;6.608;2024-02-14T09:15:56;10.20;99.99
80579;SHT31;69939;52.402;6.608;2024-02-14T09:18:25;10.19;99.99
80579;SHT31;69939;52.402;6.608;2024-02-14T09:20:57;10.22;99.99
80579;SHT31;69939;52.402;6.608;2024-02-14T09:23:29;10.25;99.99
80579;SHT31;69939;52.402;6.608;2024-02-14T09:25:59;10.22;99.99
80579;SHT31;69939;52.402;6.608;2024-02-14T09:28:28;10.22;99.99
80579;SHT31;69939;52.402;6.608;2024-02-14T09:30:58;10.23;99.99
80579;SHT31;69939;52.402;6.608;2024-02-14T09:33:30;10.28;99.99
80579;SHT31;69939;52.402;6.608;2024-02-14T09:35:59;10.29;99.99
80579;SHT31;69939;52.402;6.608;2024-02-14T09:38:31;10.29;99.99
80579;SHT31;69939;52.402;6.608;2024-02-14T09:41:06;10.34;99.99
80579;SHT31;69939;52.402;6.608;2024-02-14T09:43:44;10.34;99.99
80579;SHT31;69939;52.402;6.608;2024-02-14T09:46:15;10.37;99.99
80579;SHT31;69939;52.402;6.608;2024-02-14T09:48:45;10.36;99.99
80579;SHT31;69939;52.402;6.608;2024-02-14T09:51:15;10.39;99.99
80579;SHT31;69939;52.402;6.608;2024-02-14T09:53:48;10.37;99.99
80579;SHT31;69939;52.402;6.608;2024-02-14T09:56:19;10.40;99.99
80579;SHT31;69939;52.402;6.608;2024-02-14T09:58:51;10.44;99.99
80579;SHT31;69939;52.402;6.608;2024-02-14T10:01:26;10.47;99.99
80579;SHT31;69939;52.402;6.608;2024-02-14T10:03:56;10.43;99.99
80579;SHT31;69939;52.402;6.608;2024-02-14T10:06:26;10.47;99.99
80579;SHT31;69939;52.402;6.608;2024-02-14T10:08:59;10.46;99.99
80579;SHT31;69939;52.402;6.608;2024-02-14T10:11:30;10.49;99.99
80579;SHT31;69939;52.402;6.608;2024-02-14T10:14:07;10.47;99.99
80579;SHT31;69939;52.402;6.608;2024-02-14T10:16:38;10.46;99.99
80579;SHT31;69939;52.402;6.608;2024-02-14T10:19:14;10.46;99.99
80579;SHT31;69939;52.402;6.608;2024-02-14T10:21:44;10.52;99.99
80579;SHT31;69939;52.402;6.608;2024-02-14T10:24:33;10.52;99.99
80579;SHT31;69939;52.402;6.608;2024-02-14T10:27:06;10.56;99.99
80579;SHT31;69939;52.402;6.608;2024-02-14T10:29:41;10.56;99.99
80579;SHT31;69939;52.402;6.608;2024-02-14T10:32:14;10.67;99.99
80579;SHT31;69939;52.402;6.608;2024-02-14T10:34:45;10.81;99.99
80579;SHT31;69939;52.402;6.608;2024-02-14T10:37:14;10.91;99.99
80579;SHT31;69939;52.402;6.608;2024-02-14T10:39:46;10.99;99.99
80579;SHT31;69939;52.402;6.608;2024-02-14T10:42:18;10.92;99.99
80579;SHT31;69939;52.402;6.608;2024-02-14T10:44:50;11.11;99.99
80579;SHT31;69939;52.402;6.608;2024-02-14T10:47:24;11.07;99.99
80579;SHT31;69939;52.402;6.608;2024-02-14T10:50:02;10.98;99.99
80579;SHT31;69939;52.402;6.608;2024-02-14T10:52:34;10.95;99.99
80579;SHT31;69939;52.402;6.608;2024-02-14T10:55:06;10.95;99.99
80579;SHT31;69939;52.402;6.608;2024-02-14T10:57:43;10.91;99.99
80579;SHT31;69939;52.402;6.608;2024-02-14T11:00:15;10.84;99.99
80579;SHT31;69939;52.402;6.608;2024-02-14T11:02:47;10.85;99.99
80579;SHT31;69939;52.402;6.608;2024-02-14T11:05:19;10.87;99.99
80579;SHT31;69939;52.402;6.608;2024-02-14T11:07:55;10.85;99.99
80579;SHT31;69939;52.402;6.608;2024-02-14T11:10:24;10.82;99.99
80579;SHT31;69939;52.402;6.608;2024-02-14T11:12:54;10.87;99.99
80579;SHT31;69939;52.402;6.608;2024-02-14T11:15:24;10.82;99.99
80579;SHT31;69939;52.402;6.608;2024-02-14T11:18:04;10.80;99.99
80579;SHT31;69939;52.402;6.608;2024-02-14T11:20:35;10.80;99.99
80579;SHT31;69939;52.402;6.608;2024-02-14T11:23:08;10.81;99.99
80579;SHT31;69939;52.402;6.608;2024-02-14T11:25:38;10.82;99.99
80579;SHT31;69939;52.402;6.608;2024-02-14T11:28:15;10.82;99.99
80579;SHT31;69939;52.402;6.608;2024-02-14T11:30:47;10.82;99.99
80579;SHT31;69939;52.402;6.608;2024-02-14T11:33:17;10.82;99.99
80579;SHT31;69939;52.402;6.608;2024-02-14T11:35:53;10.78;99.99
80579;SHT31;69939;52.402;6.608;2024-02-14T11:38:27;10.87;99.99
80579;SHT31;69939;52.402;6.608;2024-02-14T11:40:56;10.84;99.99
80579;SHT31;69939;52.402;6.608;2024-02-14T11:43:26;10.88;99.99
80579;SHT31;69939;52.402;6.608;2024-02-14T11:45:56;10.84;99.99
80579;SHT31;69939;52.402;6.608;2024-02-14T11:48:25;10.84;99.99
80579;SHT31;69939;52.402;6.608;2024-02-14T11:50:55;10.84;99.99
80579;SHT31;69939;52.402;6.608;2024-02-14T11:53:28;10.92;99.99
80579;SHT31;69939;52.402;6.608;2024-02-14T11:55:58;10.91;99.99
80579;SHT31;69939;52.402;6.608;2024-02-14T11:58:28;10.88;99.99
80579;SHT31;69939;52.402;6.608;2024-02-14T12:00:57;10.94;99.99
80579;SHT31;69939;52.402;6.608;2024-02-14T12:03:26;10.95;99.99
80579;SHT31;69939;52.402;6.608;2024-02-14T12:05:56;10.88;99.99
80579;SHT31;69939;52.402;6.608;2024-02-14T12:08:28;10.92;99.99
80579;SHT31;69939;52.402;6.608;2024-02-14T12:10:58;10.91;99.99
80579;SHT31;69939;52.402;6.608;2024-02-14T12:13:27;10.88;99.99
80579;SHT31;69939;52.402;6.608;2024-02-14T12:16:03;10.88;99.99
80579;SHT31;69939;52.402;6.608;2024-02-14T12:18:36;10.88;99.99
80579;SHT31;69939;52.402;6.608;2024-02-14T12:21:05;10.91;99.99
80579;SHT31;69939;52.402;6.608;2024-02-14T12:23:41;10.95;99.99
80579;SHT31;69939;52.402;6.608;2024-02-14T12:26:10;10.95;99.99
80579;SHT31;69939;52.402;6.608;2024-02-14T12:28:45;10.98;99.99
80579;SHT31;69939;52.402;6.608;2024-02-14T12:31:22;11.05;99.99
80579;SHT31;69939;52.402;6.608;2024-02-14T12:33:51;10.97;99.99
80579;SHT31;69939;52.402;6.608;2024-02-14T12:36:21;10.94;99.99
80579;SHT31;69939;52.402;6.608;2024-02-14T12:38:54;10.95;99.99
80579;SHT31;69939;52.402;6.608;2024-02-14T12:41:23;11.01;99.99
80579;SHT31;69939;52.402;6.608;2024-02-14T12:43:55;10.99;99.99
80579;SHT31;69939;52.402;6.608;2024-02-14T12:46:28;11.01;99.99
80579;SHT31;69939;52.402;6.608;2024-02-14T12:48:57;11.04;99.99
80579;SHT31;69939;52.402;6.608;2024-02-14T12:51:26;11.05;99.99
80579;SHT31;69939;52.402;6.608;2024-02-14T12:53:58;11.08;99.99
80579;SHT31;69939;52.402;6.608;2024-02-14T12:56:33;11.05;99.99
80579;SHT31;69939;52.402;6.608;2024-02-14T12:59:03;11.05;99.99
80579;SHT31;69939;52.402;6.608;2024-02-14T13:01:32;11.05;99.99
80579;SHT31;69939;52.402;6.608;2024-02-14T13:04:01;11.08;99.99
80579;SHT31;69939;52.402;6.608;2024-02-14T13:06:30;11.09;99.99
80579;SHT31;69939;52.402;6.608;2024-02-14T13:09:00;11.12;99.99
80579;SHT31;69939;52.402;6.608;2024-02-14T13:11:33;11.15;99.99
80579;SHT31;69939;52.402;6.608;2024-02-14T13:14:08;11.12;99.99
80579;SHT31;69939;52.402;6.608;2024-02-14T13:16:38;11.25;99.99
80579;SHT31;69939;52.402;6.608;2024-02-14T13:19:07;11.25;99.99
80579;SHT31;69939;52.402;6.608;2024-02-14T13:21:37;11.25;99.99
80579;SHT31;69939;52.402;6.608;2024-02-14T13:24:11;11.29;99.99
80579;SHT31;69939;52.402;6.608;2024-02-14T13:26:41;11.28;99.99
80579;SHT31;69939;52.402;6.608;2024-02-14T13:29:13;11.36;99.99
80579;SHT31;69939;52.402;6.608;2024-02-14T13:31:42;11.32;99.99
80579;SHT31;69939;52.402;6.608;2024-02-14T13:34:11;11.32;99.99
80579;SHT31;69939;52.402;6.608;2024-02-14T13:36:41;11.29;99.99
80579;SHT31;69939;52.402;6.608;2024-02-14T13:39:10;11.30;99.99
80579;SHT31;69939;52.402;6.608;2024-02-14T13:41:40;11.23;99.99
80579;SHT31;69939;52.402;6.608;2024-02-14T13:44:13;11.28;99.99
80579;SHT31;69939;52.402;6.608;2024-02-14T13:46:44;11.29;99.99
80579;SHT31;69939;52.402;6.608;2024-02-14T13:49:15;11.28;99.99
80579;SHT31;69939;52.402;6.608;2024-02-14T13:51:51;11.33;99.99
80579;SHT31;69939;52.402;6.608;2024-02-14T13:54:22;11.33;99.99
80579;SHT31;69939;52.402;6.608;2024-02-14T13:56:52;11.35;99.99
80579;SHT31;69939;52.402;6.608;2024-02-14T13:59:22;11.36;99.99
80579;SHT31;69939;52.402;6.608;2024-02-14T14:01:51;11.39;99.99
80579;SHT31;69939;52.402;6.608;2024-02-14T14:04:21;11.40;99.99
80579;SHT31;69939;52.402;6.608;2024-02-14T14:06:54;11.47;99.99
80579;SHT31;69939;52.402;6.608;2024-02-14T14:09:24;11.46;99.99
80579;SHT31;69939;52.402;6.608;2024-02-14T14:11:53;11.44;99.99
80579;SHT31;69939;52.402;6.608;2024-02-14T14:14:22;11.49;99.99
80579;SHT31;69939;52.402;6.608;2024-02-14T14:16:53;11.49;99.99
80579;SHT31;69939;52.402;6.608;2024-02-14T14:19:22;11.46;99.99
80579;SHT31;69939;52.402;6.608;2024-02-14T14:21:55;11.43;99.99
80579;SHT31;69939;52.402;6.608;2024-02-14T14:24:24;11.43;99.99
80579;SHT31;69939;52.402;6.608;2024-02-14T14:26:56;11.43;99.99
80579;SHT31;69939;52.402;6.608;2024-02-14T14:29:26;11.39;99.99
80579;SHT31;69939;52.402;6.608;2024-02-14T14:31:57;11.42;99.99
80579;SHT31;69939;52.402;6.608;2024-02-14T14:34:26;11.39;99.99
80579;SHT31;69939;52.402;6.608;2024-02-14T14:37:02;11.42;99.99
80579;SHT31;69939;52.402;6.608;2024-02-14T14:39:32;11.39;99.99
80579;SHT31;69939;52.402;6.608;2024-02-14T14:42:02;11.40;99.99
80579;SHT31;69939;52.402;6.608;2024-02-14T14:44:32;11.39;99.99
80579;SHT31;69939;52.402;6.608;2024-02-14T14:47:02;11.42;99.99
80579;SHT31;69939;52.402;6.608;2024-02-14T14:49:31;11.40;99.99
80579;SHT31;69939;52.402;6.608;2024-02-14T14:52:03;11.38;99.99
80579;SHT31;69939;52.402;6.608;2024-02-14T14:54:33;11.35;99.99
80579;SHT31;69939;52.402;6.608;2024-02-14T14:57:03;11.33;99.99
80579;SHT31;69939;52.402;6.608;2024-02-14T14:59:39;11.38;99.99
80579;SHT31;69939;52.402;6.608;2024-02-14T15:02:09;11.40;99.99
80579;SHT31;69939;52.402;6.608;2024-02-14T15:04:38;11.40;99.99
80579;SHT31;69939;52.402;6.608;2024-02-14T15:07:12;11.42;99.99
80579;SHT31;69939;52.402;6.608;2024-02-14T15:09:42;11.42;99.99
80579;SHT31;69939;52.402;6.608;2024-02-14T15:12:11;11.40;99.99
80579;SHT31;69939;52.402;6.608;2024-02-14T15:14:41;11.39;99.99
80579;SHT31;69939;52.402;6.608;2024-02-14T15:17:10;11.40;99.99
80579;SHT31;69939;52.402;6.608;2024-02-14T15:19:40;11.36;99.99
80579;SHT31;69939;52.402;6.608;2024-02-14T15:22:12;11.36;99.99
80579;SHT31;69939;52.402;6.608;2024-02-14T15:24:41;11.36;99.99
80579;SHT31;69939;52.402;6.608;2024-02-14T15:27:11;11.36;99.99
80579;SHT31;69939;52.402;6.608;2024-02-14T15:29:46;11.35;99.99
80579;SHT31;69939;52.402;6.608;2024-02-14T15:32:27;11.36;99.99
80579;SHT31;69939;52.402;6.608;2024-02-14T15:35:08;11.32;99.99
80579;SHT31;69939;52.402;6.608;2024-02-14T15:37:40;11.36;99.99
80579;SHT31;69939;52.402;6.608;2024-02-14T15:40:11;11.36;99.99
80579;SHT31;69939;52.402;6.608;2024-02-14T15:42:41;11.35;99.99
80579;SHT31;69939;52.402;6.608;2024-02-14T15:45:10;11.39;99.99
80579;SHT31;69939;52.402;6.608;2024-02-14T15:47:42;11.36;99.99
80579;SHT31;69939;52.402;6.608;2024-02-14T15:50:12;11.39;99.99
80579;SHT31;69939;52.402;6.608;2024-02-14T15:52:46;11.36;99.99
80579;SHT31;69939;52.402;6.608;2024-02-14T15:55:16;11.36;99.99
80579;SHT31;69939;52.402;6.608;2024-02-14T15:57:46;11.36;99.99
80579;SHT31;69939;52.402;6.608;2024-02-14T16:00:17;11.36;99.99
80579;SHT31;69939;52.402;6.608;2024-02-14T16:02:48;11.35;99.99
80579;SHT31;69939;52.402;6.608;2024-02-14T16:05:26;11.36;99.99
80579;SHT31;69939;52.402;6.608;2024-02-14T16:07:58;11.39;99.99